createdAt,value
2023-01-29T00:01:37.923Z,12.20
2023-01-29T00:04:06.384Z,13.53
2023-01-29T00:06:36.030Z,14.37
2023-01-29T00:09:04.275Z,14.67
2023-01-29T00:11:32.663Z,13.23
2023-01-29T00:14:00.898Z,14.03
2023-01-29T00:16:29.202Z,14.70
2023-01-29T00:18:57.450Z,15.23
2023-01-29T00:21:25.800Z,14.77
2023-01-29T00:23:55.791Z,13.93
2023-01-29T00:26:24.184Z,14.63
2023-01-29T00:28:52.437Z,13.80
2023-01-29T00:31:21.754Z,14.23
2023-01-29T00:33:50.240Z,14.30
2023-01-29T00:36:19.247Z,13.13
2023-01-29T00:38:54.944Z,12.30
2023-01-29T00:41:56.551Z,12.13
2023-01-29T00:44:42.613Z,15.37
2023-01-29T00:47:30.904Z,15.43
2023-01-29T00:49:59.300Z,14.87
2023-01-29T00:52:27.606Z,16.03
2023-01-29T00:54:56.938Z,15.70
2023-01-29T00:57:27.255Z,12.63
2023-01-29T00:59:55.516Z,12.93
2023-01-29T01:02:41.193Z,11.23
2023-01-29T01:05:14.113Z,11.07
2023-01-29T01:07:42.504Z,11.30
2023-01-29T01:10:21.956Z,10.50
2023-01-29T01:12:53.591Z,9.23
2023-01-29T01:15:21.892Z,10.30
2023-01-29T01:17:52.853Z,10.50
2023-01-29T01:20:21.262Z,9.27
2023-01-29T01:22:49.580Z,9.47
2023-01-29T01:25:18.909Z,9.07
2023-01-29T01:27:47.262Z,7.90
2023-01-29T01:30:17.797Z,6.90
2023-01-29T01:32:46.411Z,6.97
2023-01-29T01:35:14.970Z,7.70
2023-01-29T01:37:43.317Z,7.37
2023-01-29T01:40:18.394Z,7.77
2023-01-29T01:42:48.666Z,7.73
2023-01-29T01:45:22.259Z,8.07
2023-01-29T01:47:52.322Z,7.63
2023-01-29T01:50:21.998Z,7.00
2023-01-29T01:52:51.770Z,6.60
2023-01-29T01:55:21.658Z,6.67
2023-01-29T01:57:51.633Z,6.67
2023-01-29T02:00:22.062Z,6.67
2023-01-29T02:03:07.449Z,6.70
2023-01-29T02:05:52.942Z,7.30
2023-01-29T02:08:41.056Z,7.07
2023-01-29T02:11:09.409Z,6.63
2023-01-29T02:13:37.657Z,7.53
2023-01-29T02:16:07.612Z,6.67
2023-01-29T02:18:38.196Z,6.67
2023-01-29T02:21:14.976Z,5.90
2023-01-29T02:24:21.359Z,6.50
2023-01-29T02:26:55.211Z,5.90
2023-01-29T02:29:28.880Z,5.17
2023-01-29T02:32:12.698Z,5.20
2023-01-29T02:35:02.302Z,5.23
2023-01-29T02:37:36.041Z,5.17
2023-01-29T02:40:09.856Z,4.90
2023-01-29T02:42:40.119Z,5.03
2023-01-29T02:45:11.992Z,4.93
2023-01-29T02:47:43.511Z,5.73
2023-01-29T02:50:16.819Z,5.30
2023-01-29T02:52:50.927Z,6.40
2023-01-29T02:55:21.533Z,6.07
2023-01-29T02:57:50.012Z,6.07
2023-01-29T03:00:20.488Z,6.73
2023-01-29T03:02:50.626Z,5.83
2023-01-29T03:05:23.158Z,5.40
2023-01-29T03:07:53.643Z,5.03
2023-01-29T03:10:23.187Z,5.57
2023-01-29T03:12:55.598Z,6.23
2023-01-29T03:15:27.344Z,6.20
2023-01-29T03:17:57.002Z,6.40
2023-01-29T03:20:26.679Z,6.07
2023-01-29T03:23:01.371Z,6.13
2023-01-29T03:25:47.069Z,7.03
2023-01-29T03:28:34.610Z,7.03
2023-01-29T03:31:23.049Z,6.33
2023-01-29T03:33:52.523Z,5.57
2023-01-29T03:36:22.593Z,6.07
2023-01-29T03:38:50.804Z,5.87
2023-01-29T03:41:24.397Z,5.13
2023-01-29T03:43:56.410Z,5.10
2023-01-29T03:46:29.333Z,5.30
2023-01-29T03:49:00.270Z,5.00
2023-01-29T03:51:31.691Z,4.37
2023-01-29T03:54:05.369Z,4.73
2023-01-29T03:56:38.676Z,4.90
2023-01-29T03:59:12.065Z,4.57
2023-01-29T04:01:43.457Z,4.83
2023-01-29T04:04:14.640Z,5.17
2023-01-29T04:06:43.406Z,4.90
2023-01-29T04:09:13.444Z,5.03
2023-01-29T04:11:46.549Z,4.70
2023-01-29T04:14:14.804Z,4.23
2023-01-29T04:16:51.543Z,4.63
2023-01-29T04:19:19.767Z,5.23
2023-01-29T04:21:48.574Z,5.93
2023-01-29T04:24:16.828Z,5.20
2023-01-29T04:26:56.811Z,5.20
2023-01-29T04:29:31.781Z,5.40
2023-01-29T04:32:04.515Z,4.80
2023-01-29T04:34:36.224Z,5.10
2023-01-29T04:37:07.753Z,4.93
2023-01-29T04:39:40.484Z,5.40
2023-01-29T04:42:13.592Z,5.20
2023-01-29T04:44:43.866Z,5.73
2023-01-29T04:47:19.299Z,6.00
2023-01-29T04:49:49.298Z,5.80
2023-01-29T04:52:18.697Z,5.97
2023-01-29T04:54:54.110Z,5.47
2023-01-29T04:57:25.554Z,5.70
2023-01-29T04:59:57.139Z,5.57
2023-01-29T05:02:27.192Z,5.73
2023-01-29T05:04:55.499Z,5.97
2023-01-29T05:07:23.728Z,6.30
2023-01-29T05:09:52.014Z,5.87
2023-01-29T05:12:20.340Z,5.33
2023-01-29T05:14:48.993Z,6.67
2023-01-29T05:17:17.905Z,5.57
2023-01-29T05:19:47.557Z,6.23
2023-01-29T05:22:17.898Z,6.00
2023-01-29T05:24:46.662Z,6.27
2023-01-29T05:27:35.003Z,6.40
2023-01-29T05:30:03.292Z,7.13
2023-01-29T05:32:31.591Z,7.67
2023-01-29T05:35:01.282Z,6.70
2023-01-29T05:37:29.563Z,6.70
2023-01-29T05:39:57.840Z,6.47
2023-01-29T05:42:26.107Z,7.00
2023-01-29T05:44:54.554Z,7.20
2023-01-29T05:47:22.827Z,7.20
2023-01-29T05:49:51.119Z,6.67
2023-01-29T05:52:20.754Z,7.00
2023-01-29T05:54:49.143Z,8.13
2023-01-29T05:57:17.439Z,7.50
2023-01-29T05:59:45.696Z,7.93
2023-01-29T06:02:13.929Z,7.50
2023-01-29T06:04:42.156Z,7.80
2023-01-29T06:07:10.430Z,6.90
2023-01-29T06:09:40.097Z,8.10
2023-01-29T06:12:08.528Z,8.13
2023-01-29T06:14:36.769Z,8.40
2023-01-29T06:17:04.995Z,8.63
2023-01-29T06:19:33.391Z,8.43
2023-01-29T06:22:01.625Z,9.27
2023-01-29T06:24:29.884Z,9.27
2023-01-29T06:26:59.598Z,9.13
2023-01-29T06:29:27.848Z,8.43
2023-01-29T06:31:56.176Z,8.17
2023-01-29T06:34:24.441Z,7.70
2023-01-29T06:36:52.679Z,7.40
2023-01-29T06:39:20.926Z,7.50
2023-01-29T06:41:49.186Z,7.20
2023-01-29T06:44:18.806Z,7.57
2023-01-29T06:46:47.122Z,6.57
2023-01-29T06:49:15.432Z,7.10
2023-01-29T06:51:43.670Z,7.83
2023-01-29T06:54:11.958Z,6.90
2023-01-29T06:56:40.216Z,7.13
2023-01-29T06:59:08.528Z,7.13
2023-01-29T07:01:41.202Z,7.17
2023-01-29T07:04:09.714Z,6.10
2023-01-29T07:06:38.008Z,5.90
2023-01-29T07:09:06.502Z,7.20
2023-01-29T07:11:37.776Z,8.13
2023-01-29T07:14:06.036Z,8.47
2023-01-29T07:16:34.506Z,8.60
2023-01-29T07:19:04.279Z,9.73
2023-01-29T07:21:32.523Z,9.30
2023-01-29T07:24:00.863Z,8.80
2023-01-29T07:26:29.200Z,8.77
2023-01-29T07:28:57.456Z,8.63
2023-01-29T07:31:25.878Z,8.70
2023-01-29T07:33:54.167Z,10.33
2023-01-29T07:36:24.238Z,11.50
2023-01-29T07:38:52.519Z,11.43
2023-01-29T07:41:20.896Z,12.17
2023-01-29T07:43:49.140Z,16.10
2023-01-29T07:46:17.430Z,12.87
2023-01-29T07:48:45.761Z,13.77
2023-01-29T07:51:14.048Z,12.17
2023-01-29T07:53:44.509Z,14.07
2023-01-29T07:56:12.879Z,12.53
2023-01-29T07:58:41.136Z,11.97
2023-01-29T08:01:09.817Z,11.50
2023-01-29T08:03:38.311Z,10.00
2023-01-29T08:06:06.988Z,9.30
2023-01-29T08:08:35.310Z,9.93
2023-01-29T08:11:05.722Z,10.23
2023-01-29T08:13:34.045Z,10.27
2023-01-29T08:16:02.491Z,11.53
2023-01-29T08:18:31.638Z,11.23
2023-01-29T08:21:02.895Z,12.40
2023-01-29T08:23:31.263Z,12.83
2023-01-29T08:25:59.714Z,13.00
2023-01-29T08:28:29.425Z,15.20
2023-01-29T08:30:57.736Z,16.40
2023-01-29T08:33:38.647Z,17.20
2023-01-29T08:36:08.643Z,15.27
2023-01-29T08:38:36.929Z,15.27
2023-01-29T08:41:05.343Z,16.40
2023-01-29T08:43:36.959Z,16.13
2023-01-29T08:46:05.657Z,19.40
2023-01-29T08:48:33.944Z,17.47
2023-01-29T08:51:02.667Z,18.20
2023-01-29T08:53:30.981Z,18.33
2023-01-29T08:55:59.250Z,19.13
2023-01-29T08:58:27.564Z,21.33
2023-01-29T09:00:57.291Z,22.70
2023-01-29T09:03:25.586Z,15.87
2023-01-29T09:05:53.883Z,16.50
2023-01-29T09:08:22.144Z,18.60
2023-01-29T09:10:50.481Z,17.13
2023-01-29T09:13:18.737Z,17.83
2023-01-29T09:15:46.979Z,25.83
2023-01-29T09:18:16.630Z,28.70
2023-01-29T09:20:44.851Z,17.07
2023-01-29T09:23:13.257Z,22.03
2023-01-29T09:25:43.633Z,23.20
2023-01-29T09:28:11.882Z,17.23
2023-01-29T09:30:40.245Z,20.10
2023-01-29T09:33:08.751Z,17.37
2023-01-29T09:35:38.419Z,18.07
2023-01-29T09:38:06.687Z,12.90
2023-01-29T09:40:37.176Z,11.33
2023-01-29T09:43:07.758Z,10.93
2023-01-29T09:45:36.067Z,11.27
2023-01-29T09:48:05.834Z,10.30
2023-01-29T09:50:36.356Z,11.27
2023-01-29T09:53:10.079Z,10.67
2023-01-29T09:55:40.655Z,10.70
2023-01-29T09:58:13.477Z,11.93
2023-01-29T10:00:45.097Z,12.13
2023-01-29T10:03:22.234Z,10.83
2023-01-29T10:06:22.001Z,8.17
2023-01-29T10:09:09.227Z,5.30
2023-01-29T10:11:43.351Z,7.07
2023-01-29T10:14:16.530Z,7.23
2023-01-29T10:16:51.201Z,8.17
2023-01-29T10:19:47.722Z,8.80
2023-01-29T10:22:29.945Z,8.50
2023-01-29T10:25:00.918Z,8.97
2023-01-29T10:27:32.175Z,8.07
2023-01-29T10:30:00.417Z,8.60
2023-01-29T10:32:38.836Z,8.20
2023-01-29T10:35:14.422Z,8.77
2023-01-29T10:37:44.073Z,8.30
2023-01-29T10:40:22.458Z,8.37
2023-01-29T10:42:54.328Z,8.40
2023-01-29T10:45:27.339Z,8.13
2023-01-29T10:48:33.865Z,6.80
2023-01-29T10:51:03.390Z,8.10
2023-01-29T10:53:52.122Z,7.13
2023-01-29T10:56:40.357Z,5.90
2023-01-29T10:59:10.858Z,6.20
2023-01-29T11:01:39.197Z,6.23
2023-01-29T11:04:07.967Z,6.00
2023-01-29T11:06:36.948Z,7.70
2023-01-29T11:09:08.368Z,7.40
2023-01-29T11:11:40.820Z,8.47
2023-01-29T11:14:11.797Z,8.23
2023-01-29T11:16:42.649Z,8.17
2023-01-29T11:19:11.127Z,8.73
2023-01-29T11:21:52.631Z,9.63
2023-01-29T11:24:20.910Z,9.37
2023-01-29T11:26:51.274Z,10.23
2023-01-29T11:29:40.502Z,11.83
2023-01-29T11:32:09.691Z,11.90
2023-01-29T11:34:39.439Z,13.33
2023-01-29T11:37:21.714Z,13.73
2023-01-29T11:39:50.698Z,13.80
2023-01-29T11:42:22.614Z,13.93
2023-01-29T11:44:50.978Z,12.23
2023-01-29T11:47:20.443Z,12.20
2023-01-29T11:49:50.030Z,12.17
2023-01-29T11:52:19.367Z,10.70
2023-01-29T11:54:49.579Z,10.70
2023-01-29T11:57:25.336Z,11.13
2023-01-29T11:59:53.731Z,9.37
2023-01-29T12:02:28.202Z,8.23
2023-01-29T12:04:56.543Z,9.50
2023-01-29T12:07:24.788Z,9.37
2023-01-29T12:09:54.901Z,9.57
2023-01-29T12:12:36.617Z,10.33
2023-01-29T12:15:06.924Z,8.80
2023-01-29T12:17:36.560Z,8.37
2023-01-29T12:20:08.044Z,8.90
2023-01-29T12:22:41.048Z,8.90
2023-01-29T12:25:10.978Z,8.53
2023-01-29T12:27:43.166Z,8.53
2023-01-29T12:30:14.172Z,8.27
2023-01-29T12:32:45.730Z,8.63
2023-01-29T12:35:16.348Z,7.87
2023-01-29T12:37:49.916Z,7.10
2023-01-29T12:40:19.194Z,6.63
2023-01-29T12:42:50.832Z,6.77
2023-01-29T12:45:19.817Z,7.20
2023-01-29T12:47:49.588Z,7.20
2023-01-29T12:50:20.779Z,6.53
2023-01-29T12:52:50.123Z,5.57
2023-01-29T12:55:19.664Z,5.93
2023-01-29T12:57:52.017Z,6.30
2023-01-29T13:00:23.084Z,5.70
2023-01-29T13:02:55.111Z,6.60
2023-01-29T13:05:24.792Z,6.00
2023-01-29T13:07:55.659Z,6.13
2023-01-29T13:10:26.768Z,6.83
2023-01-29T13:12:59.016Z,6.60
2023-01-29T13:15:30.100Z,6.37
2023-01-29T13:18:00.427Z,6.63
2023-01-29T13:20:30.523Z,7.17
2023-01-29T13:23:00.657Z,7.43
2023-01-29T13:25:28.980Z,8.70
2023-01-29T13:27:58.650Z,6.90
2023-01-29T13:30:31.050Z,6.10
2023-01-29T13:33:09.705Z,6.50
2023-01-29T13:35:39.501Z,6.60
2023-01-29T13:38:07.768Z,6.97
2023-01-29T13:40:36.014Z,8.07
2023-01-29T13:43:06.989Z,7.00
2023-01-29T13:45:36.858Z,7.37
2023-01-29T13:48:12.367Z,6.67
2023-01-29T13:50:41.236Z,6.93
2023-01-29T13:53:09.925Z,6.67
2023-01-29T13:55:39.156Z,6.80
2023-01-29T13:58:08.870Z,7.73
2023-01-29T14:01:01.553Z,8.43
2023-01-29T14:04:10.130Z,8.03
2023-01-29T14:06:47.625Z,7.97
2023-01-29T14:09:55.827Z,8.80
2023-01-29T14:12:45.086Z,7.87
2023-01-29T14:15:25.842Z,8.87
2023-01-29T14:18:20.768Z,8.87
2023-01-29T14:21:00.049Z,8.23
2023-01-29T14:23:37.806Z,7.53
2023-01-29T14:26:06.746Z,8.97
2023-01-29T14:28:35.388Z,9.63
2023-01-29T14:31:05.408Z,9.37
2023-01-29T14:33:36.758Z,10.07
2023-01-29T14:36:06.419Z,11.97
2023-01-29T14:38:34.680Z,9.17
2023-01-29T14:41:09.727Z,9.03
2023-01-29T14:43:37.943Z,9.20
2023-01-29T14:46:44.517Z,8.90
2023-01-29T14:49:12.962Z,8.70
2023-01-29T14:51:43.861Z,8.90
2023-01-29T14:54:22.413Z,7.57
2023-01-29T14:56:55.931Z,8.70
2023-01-29T14:59:25.239Z,7.80
2023-01-29T15:01:56.092Z,8.60
2023-01-29T15:04:25.686Z,8.53
2023-01-29T15:06:56.410Z,8.33
2023-01-29T15:09:36.465Z,8.93
2023-01-29T15:12:07.401Z,8.37
2023-01-29T15:14:36.919Z,8.50
2023-01-29T15:17:24.290Z,8.93
2023-01-29T15:19:53.153Z,9.17
2023-01-29T15:22:21.955Z,9.27
2023-01-29T15:25:03.950Z,9.50
2023-01-29T15:27:32.309Z,9.77
2023-01-29T15:30:01.436Z,9.50
2023-01-29T15:32:33.760Z,9.30
2023-01-29T15:35:02.775Z,10.00
2023-01-29T15:37:33.117Z,9.80
2023-01-29T15:40:01.551Z,10.47
2023-01-29T15:42:30.453Z,10.70
2023-01-29T15:44:58.689Z,10.23
2023-01-29T15:47:29.057Z,10.73
2023-01-29T15:49:58.770Z,12.10
2023-01-29T15:52:28.899Z,12.10
2023-01-29T15:54:57.524Z,12.03
2023-01-29T15:57:26.860Z,12.73
2023-01-29T15:59:55.551Z,12.17
2023-01-29T16:02:30.999Z,11.90
2023-01-29T16:05:00.683Z,11.57
2023-01-29T16:07:28.998Z,12.73
2023-01-29T16:09:57.287Z,12.33
2023-01-29T16:12:25.564Z,13.33
2023-01-29T16:14:53.839Z,15.83
2023-01-29T16:17:26.241Z,14.30
2023-01-29T16:19:58.256Z,13.80
2023-01-29T16:22:28.285Z,13.83
2023-01-29T16:24:56.508Z,14.67
2023-01-29T16:27:24.843Z,14.90
2023-01-29T16:29:53.070Z,13.70
2023-01-29T16:32:21.657Z,14.50
2023-01-29T16:34:49.929Z,15.37
2023-01-29T16:37:21.383Z,14.17
2023-01-29T16:39:52.461Z,14.77
2023-01-29T16:42:27.898Z,13.60
2023-01-29T16:45:00.583Z,13.13
2023-01-29T16:47:30.989Z,12.70
2023-01-29T16:50:00.765Z,13.53
2023-01-29T16:52:30.266Z,13.63
2023-01-29T16:55:21.583Z,14.77
2023-01-29T16:57:52.627Z,12.87
2023-01-29T17:00:24.303Z,14.00
2023-01-29T17:02:53.876Z,14.80
2023-01-29T17:05:24.353Z,14.87
2023-01-29T17:07:52.708Z,17.20
2023-01-29T17:10:22.630Z,17.60
2023-01-29T17:12:54.995Z,13.47
2023-01-29T17:15:32.804Z,15.17
2023-01-29T17:18:01.118Z,16.23
2023-01-29T17:20:30.488Z,17.33
2023-01-29T17:22:58.775Z,18.00
2023-01-29T17:25:28.445Z,17.10
2023-01-29T17:27:56.777Z,15.33
2023-01-29T17:30:26.488Z,16.47
2023-01-29T17:32:54.881Z,16.93
2023-01-29T17:35:23.225Z,15.53
2023-01-29T17:37:51.580Z,14.77
2023-01-29T17:40:40.166Z,14.93
2023-01-29T17:43:11.770Z,15.83
2023-01-29T17:45:40.370Z,14.73
2023-01-29T17:48:13.380Z,14.20
2023-01-29T17:50:41.724Z,16.80
2023-01-29T17:53:09.995Z,16.70
2023-01-29T17:55:39.719Z,15.17
2023-01-29T17:58:08.001Z,15.50
2023-01-29T18:00:36.540Z,15.67
2023-01-29T18:03:04.893Z,16.27
2023-01-29T18:05:33.147Z,15.70
2023-01-29T18:08:01.542Z,16.47
2023-01-29T18:10:30.250Z,19.03
2023-01-29T18:12:59.944Z,18.30
2023-01-29T18:15:28.284Z,18.60
2023-01-29T18:17:57.531Z,19.10
2023-01-29T18:20:26.063Z,18.03
2023-01-29T18:22:54.347Z,17.33
2023-01-29T18:25:24.763Z,18.13
2023-01-29T18:27:53.843Z,17.73
2023-01-29T18:30:23.699Z,19.43
2023-01-29T18:32:53.332Z,19.23
2023-01-29T18:35:21.680Z,20.30
2023-01-29T18:37:49.949Z,21.27
2023-01-29T18:40:18.346Z,21.37
2023-01-29T18:42:47.149Z,20.93
2023-01-29T18:45:16.117Z,21.80
2023-01-29T18:47:46.069Z,20.50
2023-01-29T18:50:14.417Z,21.43
2023-01-29T18:52:42.791Z,21.60
2023-01-29T18:55:11.385Z,21.10
2023-01-29T18:58:25.074Z,20.30
2023-01-29T19:00:28.805Z,18.77
2023-01-29T19:02:58.481Z,20.83
2023-01-29T19:05:26.742Z,21.10
2023-01-29T19:07:55.261Z,21.13
2023-01-29T19:10:23.719Z,21.33
2023-01-29T19:12:52.041Z,21.27
2023-01-29T19:15:22.080Z,21.57
2023-01-29T19:17:50.604Z,22.03
2023-01-29T19:20:20.510Z,22.37
2023-01-29T19:22:48.808Z,21.00
2023-01-29T19:25:17.712Z,21.50
2023-01-29T19:27:46.446Z,21.87
2023-01-29T19:30:15.179Z,20.87
2023-01-29T19:32:43.480Z,21.07
2023-01-29T19:35:11.848Z,19.43
2023-01-29T19:37:41.505Z,20.97
2023-01-29T19:40:11.073Z,20.23
2023-01-29T19:42:39.907Z,20.67
2023-01-29T19:45:09.941Z,21.73
2023-01-29T19:47:40.262Z,20.23
2023-01-29T19:50:09.183Z,22.43
2023-01-29T19:52:52.792Z,21.37
2023-01-29T19:55:22.580Z,20.60
2023-01-29T19:57:53.314Z,22.83
2023-01-29T20:00:22.112Z,21.03
2023-01-29T20:02:50.419Z,22.37
2023-01-29T20:05:20.404Z,23.07
2023-01-29T20:07:50.044Z,22.10
2023-01-29T20:10:18.841Z,21.40
2023-01-29T20:12:48.908Z,21.40
2023-01-29T20:15:17.285Z,21.03
2023-01-29T20:17:46.091Z,21.50
2023-01-29T20:20:16.679Z,20.60
2023-01-29T20:22:45.224Z,20.83
2023-01-29T20:25:14.691Z,20.67
2023-01-29T20:27:43.327Z,20.37
2023-01-29T20:30:14.071Z,22.27
2023-01-29T20:32:42.463Z,22.03
2023-01-29T20:35:11.432Z,21.50
2023-01-29T20:37:39.806Z,22.40
2023-01-29T20:40:09.066Z,21.33
2023-01-29T20:42:37.352Z,21.53
2023-01-29T20:45:06.406Z,21.40
2023-01-29T20:47:36.133Z,21.90
2023-01-29T20:50:08.692Z,22.00
2023-01-29T20:52:37.060Z,21.93
2023-01-29T20:55:05.932Z,21.70
2023-01-29T20:57:34.308Z,21.30
2023-01-29T21:00:02.572Z,22.50
2023-01-29T21:02:31.008Z,21.20
2023-01-29T21:05:00.686Z,21.10
2023-01-29T21:07:29.183Z,20.87
2023-01-29T21:09:57.499Z,21.57
2023-01-29T21:12:25.894Z,20.47
2023-01-29T21:14:54.203Z,22.57
2023-01-29T21:17:22.500Z,22.97
2023-01-29T21:19:50.985Z,21.87
2023-01-29T21:22:20.814Z,21.60
2023-01-29T21:24:49.091Z,21.77
2023-01-29T21:27:17.370Z,22.73
2023-01-29T21:29:45.727Z,22.80
2023-01-29T21:32:14.442Z,22.07
2023-01-29T21:34:42.688Z,23.80
2023-01-29T21:37:10.950Z,25.17
2023-01-29T21:39:40.661Z,23.53
2023-01-29T21:42:26.113Z,25.37
2023-01-29T21:44:54.376Z,24.93
2023-01-29T21:47:22.679Z,24.83
2023-01-29T21:49:51.023Z,24.57
2023-01-29T21:52:19.281Z,24.10
2023-01-29T21:54:49.175Z,24.47
2023-01-29T21:57:17.824Z,25.63
2023-01-29T21:59:51.798Z,26.03
2023-01-29T22:02:21.628Z,26.27
2023-01-29T22:04:50.329Z,26.30
2023-01-29T22:07:18.693Z,25.40
2023-01-29T22:09:48.354Z,27.17
2023-01-29T22:12:16.930Z,26.30
2023-01-29T22:14:46.125Z,25.77
2023-01-29T22:17:14.454Z,24.87
2023-01-29T22:19:42.719Z,25.87
2023-01-29T22:22:14.623Z,23.90
2023-01-29T22:24:44.789Z,22.87
2023-01-29T22:27:14.616Z,24.30
2023-01-29T22:29:42.980Z,21.47
2023-01-29T22:32:11.529Z,22.97
2023-01-29T22:34:39.853Z,23.33
2023-01-29T22:37:08.261Z,22.33
2023-01-29T22:39:36.510Z,21.60
2023-01-29T22:42:04.856Z,22.13
2023-01-29T22:44:34.565Z,21.70
2023-01-29T22:47:02.974Z,21.67
2023-01-29T22:49:31.548Z,20.77
2023-01-29T22:52:11.878Z,21.20
2023-01-29T22:54:40.387Z,21.77
2023-01-29T22:57:10.181Z,19.77
2023-01-29T22:59:39.934Z,19.10
2023-01-29T23:02:08.245Z,21.57
2023-01-29T23:04:36.633Z,20.83
2023-01-29T23:07:05.154Z,20.30
2023-01-29T23:09:33.368Z,19.03
2023-01-29T23:12:01.909Z,20.47
2023-01-29T23:14:30.203Z,20.03
2023-01-29T23:16:59.823Z,20.67
2023-01-29T23:19:28.180Z,20.57
2023-01-29T23:21:56.492Z,18.17
2023-01-29T23:24:24.859Z,16.57
2023-01-29T23:27:07.027Z,16.83
2023-01-29T23:29:35.254Z,17.93
2023-01-29T23:32:04.979Z,17.53
2023-01-29T23:34:33.244Z,18.20
2023-01-29T23:37:01.569Z,17.87
2023-01-29T23:39:29.834Z,17.57
2023-01-29T23:41:58.193Z,16.93
2023-01-29T23:44:26.413Z,17.97
2023-01-29T23:46:54.770Z,18.03
2023-01-29T23:49:24.510Z,18.57
2023-01-29T23:51:52.837Z,18.57
2023-01-29T23:54:21.110Z,19.10
2023-01-29T23:56:49.452Z,20.93
2023-01-29T23:59:17.707Z,19.53
